createdAt,value
2018-01-25T00:01:56.458Z,100756.22
2018-01-25T00:04:24.300Z,100750.41
2018-01-25T00:06:52.037Z,100755.58
2018-01-25T00:09:19.730Z,100752.16
2018-01-25T00:11:47.491Z,100748.00
2018-01-25T00:14:15.214Z,100758.91
2018-01-25T00:16:42.915Z,100766.00
2018-01-25T00:19:11.324Z,100746.39
2018-01-25T00:21:39.394Z,100757.30
2018-01-25T00:24:07.163Z,100770.66
2018-01-25T00:26:34.865Z,100772.13
2018-01-25T00:29:02.603Z,100775.30
2018-01-25T00:31:30.335Z,100780.48
2018-01-25T00:33:58.102Z,100778.83
2018-01-25T00:36:25.794Z,100750.59
2018-01-25T00:38:53.525Z,100752.13
2018-01-25T00:41:21.260Z,100750.36
2018-01-25T00:43:49.375Z,100749.95
2018-01-25T00:46:17.069Z,100746.16
2018-01-25T00:48:44.783Z,100759.14
2018-01-25T00:51:12.581Z,100757.52
2018-01-25T00:53:40.333Z,100770.09
2018-01-25T00:56:08.046Z,100784.00
2018-01-25T00:58:36.186Z,100784.94
2018-01-25T01:01:03.929Z,100782.09
2018-01-25T01:03:31.616Z,100769.83
2018-01-25T01:05:59.591Z,100759.73
2018-01-25T01:08:27.259Z,100780.44
2018-01-25T01:10:54.940Z,100786.47
2018-01-25T01:13:22.652Z,100802.41
2018-01-25T01:15:50.390Z,100789.33
2018-01-25T01:18:18.157Z,100779.58
2018-01-25T01:20:46.267Z,100805.27
2018-01-25T01:23:14.003Z,100801.22
2018-01-25T01:25:42.106Z,100788.27
2018-01-25T01:28:09.828Z,100814.08
2018-01-25T01:30:37.566Z,100782.76
2018-01-25T01:33:05.261Z,100777.59
2018-01-25T01:35:32.947Z,100794.34
2018-01-25T01:38:00.710Z,100799.72
2018-01-25T01:40:28.441Z,100792.33
2018-01-25T01:42:56.136Z,100803.83
2018-01-25T01:45:23.871Z,100802.52
2018-01-25T01:47:51.605Z,100788.19
2018-01-25T01:50:19.307Z,100802.63
2018-01-25T01:52:47.410Z,100813.23
2018-01-25T01:55:15.584Z,100827.76
2018-01-25T01:57:43.392Z,100841.00
2018-01-25T02:00:11.163Z,100826.88
2018-01-25T02:02:39.299Z,100829.32
2018-01-25T02:05:06.987Z,100828.88
2018-01-25T02:07:34.722Z,100833.08
2018-01-25T02:10:02.431Z,100823.92
2018-01-25T02:12:30.164Z,100819.02
2018-01-25T02:14:58.171Z,100832.31
2018-01-25T02:17:26.123Z,100851.33
2018-01-25T02:19:53.903Z,100844.73
2018-01-25T02:22:21.887Z,100864.77
2018-01-25T02:24:49.614Z,100858.73
2018-01-25T02:27:17.480Z,100875.04
2018-01-25T02:29:45.251Z,100865.42
2018-01-25T02:32:13.695Z,100857.91
2018-01-25T02:34:41.438Z,100856.44
2018-01-25T02:37:09.111Z,100872.20
2018-01-25T02:39:38.814Z,100865.53
2018-01-25T02:42:06.582Z,100859.52
2018-01-25T02:44:35.085Z,100853.86
2018-01-25T02:47:02.959Z,100866.77
2018-01-25T02:49:30.841Z,100863.57
2018-01-25T02:51:58.600Z,100863.74
2018-01-25T02:54:26.629Z,100865.91
2018-01-25T02:56:54.422Z,100875.39
2018-01-25T02:59:22.124Z,100870.03
2018-01-25T03:01:49.972Z,100877.83
2018-01-25T03:04:17.655Z,100875.77
2018-01-25T03:06:45.414Z,100886.48
2018-01-25T03:09:13.166Z,100889.19
2018-01-25T03:11:41.829Z,100891.45
2018-01-25T03:14:09.638Z,100894.94
2018-01-25T03:16:37.410Z,100895.06
2018-01-25T03:19:06.078Z,100902.37
2018-01-25T03:21:33.735Z,100898.47
2018-01-25T03:24:02.558Z,100902.63
2018-01-25T03:26:30.283Z,100905.47
2018-01-25T03:28:57.996Z,100887.66
2018-01-25T03:31:25.760Z,100898.05
2018-01-25T03:33:53.483Z,100911.31
2018-01-25T03:36:21.166Z,100906.80
2018-01-25T03:38:48.904Z,100910.64
2018-01-25T03:41:16.608Z,100907.11
2018-01-25T03:43:44.354Z,100909.94
2018-01-25T03:46:12.582Z,100914.89
2018-01-25T03:48:40.336Z,100912.63
2018-01-25T03:51:10.771Z,100909.00
2018-01-25T03:53:38.759Z,100921.84
2018-01-25T03:56:06.458Z,100923.22
2018-01-25T03:58:34.130Z,100928.56
2018-01-25T04:01:01.839Z,100924.63
2018-01-25T04:03:29.605Z,100938.39
2018-01-25T04:05:58.754Z,100943.41
2018-01-25T04:08:26.436Z,100942.27
2018-01-25T04:10:54.637Z,100942.68
2018-01-25T04:13:23.085Z,100952.69
2018-01-25T04:15:50.800Z,100946.23
2018-01-25T04:18:18.588Z,100957.12
2018-01-25T04:20:46.309Z,100951.34
2018-01-25T04:23:14.017Z,100955.55
2018-01-25T04:25:41.752Z,100954.09
2018-01-25T04:28:09.900Z,100949.10
2018-01-25T04:30:37.621Z,100949.45
2018-01-25T04:33:05.372Z,100946.88
2018-01-25T04:35:33.128Z,100949.31
2018-01-25T04:38:00.935Z,100957.97
2018-01-25T04:40:31.757Z,100958.55
2018-01-25T04:42:59.901Z,100960.66
2018-01-25T04:45:27.650Z,100958.66
2018-01-25T04:47:55.394Z,100959.08
2018-01-25T04:50:23.183Z,100957.73
2018-01-25T04:52:51.064Z,100963.15
2018-01-25T04:55:19.739Z,100968.11
2018-01-25T04:57:47.563Z,100965.83
2018-01-25T05:00:15.332Z,100975.39
2018-01-25T05:02:43.123Z,100971.08
2018-01-25T05:05:10.964Z,100973.89
2018-01-25T05:07:38.660Z,100972.96
2018-01-25T05:10:06.381Z,100971.75
2018-01-25T05:12:34.975Z,100959.84
2018-01-25T05:15:02.709Z,100958.31
2018-01-25T05:17:32.916Z,100949.84
2018-01-25T05:20:00.664Z,100955.53
2018-01-25T05:22:28.428Z,100960.40
2018-01-25T05:24:56.132Z,100967.00
2018-01-25T05:27:23.829Z,100968.35
2018-01-25T05:29:51.608Z,100976.98
2018-01-25T05:32:19.364Z,100977.13
2018-01-25T05:34:47.077Z,100977.36
2018-01-25T05:37:14.867Z,100988.98
2018-01-25T05:39:42.608Z,100983.00
2018-01-25T05:42:10.567Z,100982.04
2018-01-25T05:44:38.280Z,100984.97
2018-01-25T05:47:06.024Z,100985.92
2018-01-25T05:49:33.772Z,100981.72
2018-01-25T05:52:01.482Z,100981.05
2018-01-25T05:54:29.162Z,100984.69
2018-01-25T05:56:56.907Z,100987.62
2018-01-25T05:59:24.770Z,100993.70
2018-01-25T06:01:52.503Z,100991.41
2018-01-25T06:04:20.258Z,100991.59
2018-01-25T06:06:48.058Z,100993.88
2018-01-25T06:09:15.746Z,100996.28
2018-01-25T06:11:43.449Z,100998.95
2018-01-25T06:14:11.568Z,100992.50
2018-01-25T06:16:39.257Z,100994.93
2018-01-25T06:19:07.032Z,100990.73
2018-01-25T06:21:35.481Z,100995.34
2018-01-25T06:24:03.160Z,101009.49
2018-01-25T06:26:30.920Z,101004.77
2018-01-25T06:28:58.626Z,101003.27
2018-01-25T06:31:26.327Z,101009.47
2018-01-25T06:33:54.052Z,101017.30
2018-01-25T06:36:21.780Z,101012.16
2018-01-25T06:38:49.515Z,101013.25
2018-01-25T06:41:17.332Z,101017.71
2018-01-25T06:43:45.033Z,101012.94
2018-01-25T06:46:12.701Z,101011.38
2018-01-25T06:48:40.411Z,101020.70
2018-01-25T06:51:08.157Z,101013.02
2018-01-25T06:53:35.942Z,101015.98
2018-01-25T06:56:04.281Z,101023.02
2018-01-25T06:58:32.114Z,101021.23
2018-01-25T07:00:59.885Z,101022.32
2018-01-25T07:03:27.577Z,101024.91
2018-01-25T07:05:55.258Z,101026.25
2018-01-25T07:08:22.920Z,101028.81
2018-01-25T07:10:50.687Z,101022.32
2018-01-25T07:13:18.362Z,101019.20
2018-01-25T07:15:46.084Z,101019.33
2018-01-25T07:18:13.826Z,101013.80
2018-01-25T07:20:41.520Z,101019.77
2018-01-25T07:23:09.251Z,101013.02
2018-01-25T07:25:36.954Z,101015.19
2018-01-25T07:28:04.604Z,101013.25
2018-01-25T07:30:32.767Z,101021.79
2018-01-25T07:33:00.441Z,101017.18
2018-01-25T07:35:28.313Z,101012.09
2018-01-25T07:37:55.988Z,101013.33
2018-01-25T07:40:23.620Z,101008.77
2018-01-25T07:42:51.424Z,101013.14
2018-01-25T07:45:19.082Z,101015.30
2018-01-25T07:47:46.746Z,101010.73
2018-01-25T07:50:14.464Z,101004.00
2018-01-25T07:52:42.175Z,101001.59
2018-01-25T07:55:09.899Z,101003.20
2018-01-25T07:57:43.218Z,101006.07
2018-01-25T08:00:10.919Z,101007.19
2018-01-25T08:02:38.674Z,101004.08
2018-01-25T08:05:06.345Z,101006.37
2018-01-25T08:07:34.087Z,101006.02
2018-01-25T08:10:01.750Z,101015.31
2018-01-25T08:12:30.302Z,101014.76
2018-01-25T08:14:57.994Z,101022.33
2018-01-25T08:17:25.629Z,101018.00
2018-01-25T08:19:53.700Z,101017.30
2018-01-25T08:22:21.384Z,101014.31
2018-01-25T08:24:49.054Z,101016.31
2018-01-25T08:27:16.813Z,101021.04
2018-01-25T08:29:44.578Z,101023.84
2018-01-25T08:32:12.291Z,101029.38
2018-01-25T08:34:39.924Z,101031.91
2018-01-25T08:37:07.594Z,101020.16
2018-01-25T08:39:35.315Z,101034.86
2018-01-25T08:42:03.172Z,101035.00
2018-01-25T08:44:30.852Z,101032.66
2018-01-25T08:46:58.541Z,101032.91
2018-01-25T08:49:26.198Z,101036.04
2018-01-25T08:51:53.926Z,101032.64
2018-01-25T08:54:21.605Z,101031.53
2018-01-25T08:56:49.284Z,101031.95
2018-01-25T08:59:16.970Z,101036.81
2018-01-25T09:01:44.623Z,101026.83
2018-01-25T09:04:12.305Z,101037.59
2018-01-25T09:06:39.946Z,101035.97
2018-01-25T09:09:07.595Z,101034.20
2018-01-25T09:11:35.635Z,101041.60
2018-01-25T09:14:03.308Z,101049.01
2018-01-25T09:16:30.995Z,101052.22
2018-01-25T09:18:59.037Z,101063.13
2018-01-25T09:21:27.206Z,101051.77
2018-01-25T09:23:54.859Z,101050.16
2018-01-25T09:26:22.579Z,101054.59
2018-01-25T09:28:50.619Z,101052.84
2018-01-25T09:31:18.303Z,101055.13
2018-01-25T09:33:46.051Z,101049.44
2018-01-25T09:36:13.739Z,101059.28
2018-01-25T09:38:41.404Z,101056.28
2018-01-25T09:41:09.539Z,101060.84
2018-01-25T09:43:37.716Z,101065.92
2018-01-25T09:46:05.712Z,101066.07
2018-01-25T09:48:33.367Z,101064.84
2018-01-25T09:51:01.011Z,101060.33
2018-01-25T09:53:28.664Z,101056.25
2018-01-25T09:55:56.314Z,101062.20
2018-01-25T09:58:24.235Z,101063.66
2018-01-25T10:00:52.354Z,101069.53
2018-01-25T10:03:20.444Z,101073.94
2018-01-25T10:05:48.116Z,101071.09
2018-01-25T10:08:15.772Z,101079.05
2018-01-25T10:10:43.501Z,101083.08
2018-01-25T10:13:11.140Z,101093.45
2018-01-25T10:15:38.762Z,101098.70
2018-01-25T10:18:06.434Z,101100.77
2018-01-25T10:20:34.090Z,101100.09
2018-01-25T10:23:02.145Z,101085.75
2018-01-25T10:25:30.207Z,101094.10
2018-01-25T10:27:57.876Z,101087.84
2018-01-25T10:30:26.148Z,101088.73
2018-01-25T10:32:53.803Z,101090.91
2018-01-25T10:35:21.427Z,101088.41
2018-01-25T10:37:49.115Z,101082.56
2018-01-25T10:40:16.802Z,101080.91
2018-01-25T10:42:44.490Z,101083.41
2018-01-25T10:45:12.175Z,101083.14
2018-01-25T10:47:39.812Z,101070.39
2018-01-25T10:50:07.675Z,101075.38
2018-01-25T10:52:35.312Z,101086.73
2018-01-25T10:55:02.967Z,101091.20
2018-01-25T10:57:30.651Z,101079.80
2018-01-25T10:59:58.598Z,101080.02
2018-01-25T11:02:26.312Z,101075.52
2018-01-25T11:04:53.986Z,101072.55
2018-01-25T11:07:21.922Z,101074.58
2018-01-25T11:09:49.575Z,101075.91
2018-01-25T11:12:17.289Z,101065.14
2018-01-25T11:14:45.006Z,101067.58
2018-01-25T11:17:12.694Z,101064.13
2018-01-25T11:19:40.395Z,101068.34
2018-01-25T11:22:08.170Z,101074.16
2018-01-25T11:24:36.365Z,101068.04
2018-01-25T11:27:04.435Z,101061.50
2018-01-25T11:29:32.113Z,101068.65
2018-01-25T11:31:59.806Z,101058.47
2018-01-25T11:34:27.456Z,101057.34
2018-01-25T11:36:55.173Z,101052.95
2018-01-25T11:39:22.852Z,101057.77
2018-01-25T11:41:50.509Z,101058.79
2018-01-25T11:44:18.175Z,101047.52
2018-01-25T11:46:45.844Z,101048.38
2018-01-25T11:49:13.844Z,101057.82
2018-01-25T11:51:41.540Z,101057.55
2018-01-25T11:54:09.214Z,101058.34
2018-01-25T11:56:36.925Z,101055.90
2018-01-25T11:59:04.563Z,101056.84
2018-01-25T12:01:32.317Z,101051.73
2018-01-25T12:04:00.041Z,101053.87
2018-01-25T12:06:27.711Z,101039.81
2018-01-25T12:08:55.428Z,101042.48
2018-01-25T12:11:23.094Z,101033.05
2018-01-25T12:13:50.730Z,101029.37
2018-01-25T12:16:18.451Z,101030.19
2018-01-25T12:18:46.587Z,101035.71
2018-01-25T12:21:14.262Z,101030.83
2018-01-25T12:23:41.925Z,101031.05
2018-01-25T12:26:09.526Z,101030.15
2018-01-25T12:28:37.236Z,101029.55
2018-01-25T12:31:04.839Z,101030.61
2018-01-25T12:33:32.485Z,101027.63
2018-01-25T12:36:00.509Z,101019.44
2018-01-25T12:38:28.166Z,101010.72
2018-01-25T12:40:55.843Z,101016.47
2018-01-25T12:43:23.545Z,101015.64
2018-01-25T12:45:51.255Z,101015.34
2018-01-25T12:48:18.927Z,101013.38
2018-01-25T12:50:46.599Z,101008.88
2018-01-25T12:53:14.678Z,101003.83
2018-01-25T12:55:42.410Z,101012.14
2018-01-25T12:58:10.027Z,101003.63
2018-01-25T13:00:37.684Z,100997.65
2018-01-25T13:03:05.391Z,101004.94
2018-01-25T13:05:33.076Z,101007.64
2018-01-25T13:08:00.748Z,100997.45
2018-01-25T13:10:28.412Z,100997.41
2018-01-25T13:12:56.057Z,100991.95
2018-01-25T13:15:23.772Z,100990.08
2018-01-25T13:17:51.474Z,100997.52
2018-01-25T13:20:19.155Z,100994.59
2018-01-25T13:22:46.778Z,101002.87
2018-01-25T13:25:14.461Z,101001.78
2018-01-25T13:27:42.149Z,101003.52
2018-01-25T13:30:09.805Z,101003.97
2018-01-25T13:32:37.481Z,101000.58
2018-01-25T13:35:05.435Z,101004.27
2018-01-25T13:37:33.532Z,101001.45
2018-01-25T13:40:01.291Z,101001.59
2018-01-25T13:42:28.950Z,101001.75
2018-01-25T13:44:56.685Z,100999.16
2018-01-25T13:47:24.774Z,100988.63
2018-01-25T13:49:52.463Z,100984.38
2018-01-25T13:55:21.163Z,100983.28
2018-01-25T13:57:48.822Z,100980.01
2018-01-25T14:00:16.487Z,100979.22
2018-01-25T14:02:44.158Z,100976.21
2018-01-25T14:05:11.827Z,100985.58
2018-01-25T14:07:39.544Z,100979.06
2018-01-25T14:10:07.527Z,100986.11
2018-01-25T14:12:35.192Z,100988.86
2018-01-25T14:15:02.844Z,100983.22
2018-01-25T14:17:30.823Z,100990.94
2018-01-25T14:19:58.497Z,100985.86
2018-01-25T14:22:26.185Z,100983.27
2018-01-25T14:24:53.885Z,100982.10
2018-01-25T14:27:21.610Z,100982.64
2018-01-25T14:29:49.291Z,100978.34
2018-01-25T14:32:17.198Z,100974.86
2018-01-25T14:34:44.888Z,100981.63
2018-01-25T14:37:12.886Z,100982.59
2018-01-25T14:39:40.594Z,100980.98
2018-01-25T14:42:08.240Z,100983.58
2018-01-25T14:44:35.874Z,100986.73
2018-01-25T14:47:03.597Z,100987.31
2018-01-25T14:49:31.266Z,100995.20
2018-01-25T14:51:58.922Z,100991.14
2018-01-25T14:54:26.576Z,100990.88
2018-01-25T14:56:54.185Z,101000.23
2018-01-25T14:59:21.840Z,101000.95
2018-01-25T15:01:49.500Z,101006.85
2018-01-25T15:04:17.525Z,101002.83
2018-01-25T15:06:45.715Z,101001.67
2018-01-25T15:09:13.405Z,100999.71
2018-01-25T15:11:41.085Z,101006.21
2018-01-25T15:14:08.740Z,101008.55
2018-01-25T15:16:36.409Z,101005.80
2018-01-25T15:19:04.122Z,101009.59
2018-01-25T15:21:31.842Z,101008.23
2018-01-25T15:23:59.996Z,101003.42
2018-01-25T15:26:28.040Z,100999.55
2018-01-25T15:28:55.672Z,101000.94
2018-01-25T15:31:23.760Z,100996.77
2018-01-25T15:33:51.834Z,100993.13
2018-01-25T15:36:19.982Z,100997.90
2018-01-25T15:38:48.814Z,100994.44
2018-01-25T15:41:19.259Z,100984.74
2018-01-25T15:43:47.004Z,100989.70
2018-01-25T15:46:14.673Z,100993.23
2018-01-25T15:48:42.528Z,101004.34
2018-01-25T15:51:10.200Z,101008.96
2018-01-25T15:53:38.554Z,101007.67
2018-01-25T15:56:06.568Z,101000.13
2018-01-25T15:58:34.489Z,101007.85
2018-01-25T16:01:05.037Z,101004.73
2018-01-25T16:03:33.814Z,100998.16
2018-01-25T16:06:01.463Z,101000.10
2018-01-25T16:08:29.426Z,100999.58
2018-01-25T16:10:57.045Z,100999.20
2018-01-25T16:13:24.669Z,100995.70
2018-01-25T16:15:52.348Z,100992.06
2018-01-25T16:18:19.998Z,100995.17
2018-01-25T16:20:47.691Z,100992.24
2018-01-25T16:23:15.382Z,100999.53
2018-01-25T16:25:43.035Z,101006.61
2018-01-25T16:28:10.840Z,101002.23
2018-01-25T16:30:38.424Z,100999.45
2018-01-25T16:33:06.442Z,101000.71
2018-01-25T16:35:34.391Z,101002.24
2018-01-25T16:38:02.070Z,101006.59
2018-01-25T16:40:29.876Z,101002.56
2018-01-25T16:42:58.184Z,101017.02
2018-01-25T16:45:26.038Z,101015.55
2018-01-25T16:47:54.543Z,101025.85
2018-01-25T16:50:22.242Z,101033.55
2018-01-25T16:52:50.695Z,101029.52
2018-01-25T16:55:18.348Z,101035.62
2018-01-25T16:57:46.006Z,101042.03
2018-01-25T17:00:13.631Z,101046.93
2018-01-25T17:02:41.299Z,101038.97
2018-01-25T17:05:08.935Z,101026.81
2018-01-25T17:07:36.545Z,101029.13
2018-01-25T17:10:04.240Z,101027.25
2018-01-25T17:12:31.974Z,101033.64
2018-01-25T17:14:59.658Z,101033.28
2018-01-25T17:17:27.316Z,101039.39
2018-01-25T17:19:54.926Z,101033.16
2018-01-25T17:22:22.585Z,101033.19
2018-01-25T17:24:50.254Z,101036.06
2018-01-25T17:27:17.921Z,101033.48
2018-01-25T17:29:45.577Z,101039.15
2018-01-25T17:32:13.198Z,101029.98
2018-01-25T17:34:40.857Z,101040.95
2018-01-25T17:37:08.524Z,101041.63
2018-01-25T17:39:36.162Z,101047.30
2018-01-25T17:42:04.097Z,101047.70
2018-01-25T17:44:32.749Z,101056.88
2018-01-25T17:47:00.755Z,101057.42
2018-01-25T17:49:29.625Z,101056.45
2018-01-25T17:51:57.282Z,101060.92
2018-01-25T17:54:25.285Z,101057.80
2018-01-25T17:56:53.352Z,101055.78
2018-01-25T17:59:21.044Z,101045.12
2018-01-25T18:01:48.773Z,101048.62
2018-01-25T18:04:16.751Z,101052.23
2018-01-25T18:06:44.409Z,101051.86
2018-01-25T18:09:12.485Z,101056.70
2018-01-25T18:11:40.124Z,101060.36
2018-01-25T18:14:07.751Z,101059.16
2018-01-25T18:16:36.516Z,101061.86
2018-01-25T18:19:04.220Z,101064.56
2018-01-25T18:21:31.865Z,101056.16
2018-01-25T18:23:59.497Z,101050.67
2018-01-25T18:26:27.184Z,101052.55
2018-01-25T18:28:56.571Z,101047.85
2018-01-25T18:31:24.302Z,101045.68
2018-01-25T18:33:52.107Z,101053.78
2018-01-25T18:36:19.873Z,101053.92
2018-01-25T18:38:47.660Z,101054.48
2018-01-25T18:41:18.961Z,101068.27
2018-01-25T18:43:49.303Z,101062.75
2018-01-25T18:46:17.001Z,101068.30
2018-01-25T18:48:44.754Z,101057.50
2018-01-25T18:51:15.192Z,101059.37
2018-01-25T18:53:42.964Z,101062.77
2018-01-25T18:56:10.666Z,101077.91
2018-01-25T18:58:38.386Z,101079.93
2018-01-25T19:01:06.149Z,101089.95
2018-01-25T19:03:34.261Z,101085.13
2018-01-25T19:06:02.028Z,101079.20
2018-01-25T19:08:29.703Z,101073.03
2018-01-25T19:10:57.431Z,101076.69
2018-01-25T19:13:25.168Z,101058.98
2018-01-25T19:15:52.985Z,101064.26
2018-01-25T19:18:20.660Z,101070.50
2018-01-25T19:20:48.383Z,101066.61
2018-01-25T19:23:16.197Z,101066.37
2018-01-25T19:25:43.885Z,101078.94
2018-01-25T19:28:11.917Z,101081.24
2018-01-25T19:30:39.889Z,101086.28
2018-01-25T19:33:07.650Z,101084.68
2018-01-25T19:35:41.966Z,101080.00
2018-01-25T19:38:10.252Z,101080.02
2018-01-25T19:40:37.955Z,101074.91
2018-01-25T19:43:06.873Z,101070.03
2018-01-25T19:45:34.873Z,101072.31
2018-01-25T19:48:02.554Z,101082.05
2018-01-25T19:50:30.272Z,101083.16
2018-01-25T19:52:58.003Z,101091.25
2018-01-25T19:55:25.755Z,101087.20
2018-01-25T19:57:53.524Z,101082.33
2018-01-25T20:00:21.258Z,101081.69
2018-01-25T20:02:49.058Z,101086.12
2018-01-25T20:05:17.851Z,101087.62
2018-01-25T20:07:45.660Z,101083.19
2018-01-25T20:10:13.860Z,101081.86
2018-01-25T20:12:41.516Z,101087.13
2018-01-25T20:15:09.219Z,101083.36
2018-01-25T20:17:37.248Z,101087.28
2018-01-25T20:20:04.951Z,101089.71
2018-01-25T20:22:32.666Z,101094.31
2018-01-25T20:25:00.399Z,101092.41
2018-01-25T20:27:28.122Z,101084.74
2018-01-25T20:29:55.811Z,101088.37
2018-01-25T20:32:23.562Z,101093.12
2018-01-25T20:34:51.595Z,101089.45
2018-01-25T20:37:19.424Z,101088.11
2018-01-25T20:39:47.124Z,101090.42
2018-01-25T20:42:15.220Z,101093.36
2018-01-25T20:44:42.970Z,101101.06
2018-01-25T20:47:10.642Z,101107.95
2018-01-25T20:49:38.402Z,101111.45
2018-01-25T20:52:06.072Z,101117.55
2018-01-25T20:54:34.049Z,101117.55
2018-01-25T20:57:01.790Z,101121.18
2018-01-25T20:59:29.526Z,101116.05
2018-01-25T21:01:57.593Z,101122.92
2018-01-25T21:04:25.280Z,101130.06
2018-01-25T21:06:53.259Z,101123.88
2018-01-25T21:09:20.974Z,101110.53
2018-01-25T21:11:48.657Z,101102.73
2018-01-25T21:14:16.358Z,101105.80
2018-01-25T21:16:43.998Z,101097.33
2018-01-25T21:19:11.921Z,101099.91
2018-01-25T21:21:39.543Z,101101.53
2018-01-25T21:24:07.182Z,101101.67
2018-01-25T21:26:34.896Z,101107.45
2018-01-25T21:29:02.587Z,101115.03
2018-01-25T21:31:30.947Z,101116.23
2018-01-25T21:33:58.659Z,101123.12
2018-01-25T21:36:26.381Z,101132.56
2018-01-25T21:38:54.117Z,101139.59
2018-01-25T21:41:21.828Z,101140.11
2018-01-25T21:43:49.612Z,101148.75
2018-01-25T21:46:17.322Z,101143.36
2018-01-25T21:48:45.073Z,101144.71
2018-01-25T21:51:13.330Z,101144.16
2018-01-25T21:53:41.053Z,101147.13
2018-01-25T21:56:08.771Z,101142.16
2018-01-25T21:58:36.833Z,101143.94
2018-01-25T22:01:04.589Z,101143.52
2018-01-25T22:03:32.334Z,101143.66
2018-01-25T22:06:00.289Z,101138.27
2018-01-25T22:08:27.974Z,101142.81
2018-01-25T22:10:55.668Z,101145.77
2018-01-25T22:13:25.901Z,101154.14
2018-01-25T22:15:54.519Z,101152.37
2018-01-25T22:18:22.292Z,101154.66
2018-01-25T22:20:50.057Z,101148.47
2018-01-25T22:23:17.865Z,101159.13
2018-01-25T22:25:45.600Z,101152.95
2018-01-25T22:28:13.301Z,101152.27
2018-01-25T22:30:41.050Z,101164.96
2018-01-25T22:33:08.810Z,101157.70
2018-01-25T22:35:36.565Z,101161.06
2018-01-25T22:38:04.425Z,101161.08
2018-01-25T22:40:32.142Z,101154.34
2018-01-25T22:42:59.813Z,101156.77
2018-01-25T22:45:27.542Z,101154.06
2018-01-25T22:47:55.300Z,101157.18
2018-01-25T22:50:22.977Z,101167.81
2018-01-25T22:52:51.022Z,101162.98
2018-01-25T22:55:18.676Z,101156.52
2018-01-25T22:57:46.394Z,101158.25
2018-01-25T23:00:25.846Z,101160.29
2018-01-25T23:02:53.963Z,101160.42
2018-01-25T23:05:21.945Z,101163.11
2018-01-25T23:07:49.620Z,101172.79
2018-01-25T23:10:17.562Z,101176.31
2018-01-25T23:12:45.235Z,101183.19
2018-01-25T23:15:12.900Z,101181.71
2018-01-25T23:17:41.066Z,101184.55
2018-01-25T23:20:08.777Z,101182.66
2018-01-25T23:22:36.794Z,101189.69
2018-01-25T23:25:04.576Z,101186.61
2018-01-25T23:27:32.343Z,101193.08
2018-01-25T23:30:00.109Z,101191.88
2018-01-25T23:32:28.026Z,101198.20
2018-01-25T23:34:55.918Z,101192.16
2018-01-25T23:37:24.369Z,101199.56
2018-01-25T23:39:52.112Z,101192.96
2018-01-25T23:42:19.872Z,101196.21
2018-01-25T23:44:47.641Z,101193.10
2018-01-25T23:47:15.775Z,101192.69
2018-01-25T23:49:43.558Z,101195.38
2018-01-25T23:52:11.438Z,101192.30
2018-01-25T23:54:39.196Z,101199.05
2018-01-25T23:57:06.961Z,101200.12
2018-01-25T23:59:34.661Z,101202.02
